Time;durP1;ratioP1;P1;durP2;ratioP2;P2;SDS_P1;SDS_P2;PMS_P1;PMS_P2;Temp;Humidity;BMP_temperature;BMP_pressure;BME280_temperature;BME280_humidity;BME280_pressure;Samples;Min_cycle;Max_cycle;Signal;HPM_P1;HPM_P2
2023/09/15 00:00:25;;;;;;;5.53;3.45;;;;;;;10.16;100.00;101966.22;1031241;28;20313;-52
2023/09/15 00:00:57;;;;;;;7.07;3.60;;;;;;;10.15;100.00;101964.56;1032236;28;20308;-49
2023/09/15 00:01:29;;;;;;;4.00;3.15;;;;;;;10.17;100.00;101965.19;1031539;28;20038;-52
2023/09/15 00:02:02;;;;;;;4.57;3.88;;;;;;;10.21;100.00;101963.84;1031600;28;20050;-51
2023/09/15 00:02:34;;;;;;;8.32;4.15;;;;;;;10.18;100.00;101968.69;1031888;28;20296;-51
2023/09/15 00:03:06;;;;;;;9.38;3.85;;;;;;;10.06;100.00;101970.97;1031593;28;20396;-53
2023/09/15 00:03:40;;;;;;;5.63;3.22;;;;;;;10.10;100.00;101966.94;1031154;28;20042;-53
2023/09/15 00:04:12;;;;;;;8.48;4.13;;;;;;;10.17;100.00;101965.19;1031679;28;20813;-53
2023/09/15 00:04:46;;;;;;;5.60;3.70;;;;;;;10.29;100.00;101965.56;1031846;28;20665;-51
2023/09/15 00:05:18;;;;;;;6.70;3.88;;;;;;;10.19;100.00;101965.84;1031677;28;20309;-50
2023/09/15 00:05:50;;;;;;;6.05;3.83;;;;;;;9.93;100.00;101962.84;1031876;28;20297;-54
2023/09/15 00:06:22;;;;;;;5.85;3.20;;;;;;;10.11;100.00;101962.44;1031380;28;20677;-54
2023/09/15 00:06:53;;;;;;;7.90;3.92;;;;;;;10.09;100.00;101959.97;1031458;28;20306;-54
2023/09/15 00:07:25;;;;;;;4.88;3.72;;;;;;;10.14;100.00;101962.91;1031517;28;20427;-53
2023/09/15 00:07:58;;;;;;;6.70;3.38;;;;;;;9.99;100.00;101958.59;1031687;28;20038;-53
2023/09/15 00:08:29;;;;;;;5.07;3.38;;;;;;;9.95;100.00;101966.13;1031772;28;20038;-54
2023/09/15 00:09:04;;;;;;;3.90;3.05;;;;;;;9.91;100.00;101960.34;1031965;28;20301;-54
2023/09/15 00:09:35;;;;;;;3.38;3.03;;;;;;;10.00;100.00;101954.94;1031391;28;20827;-53
2023/09/15 00:10:07;;;;;;;4.65;3.60;;;;;;;9.89;100.00;101953.56;1032715;28;20313;-53
2023/09/15 00:10:40;;;;;;;5.50;4.00;;;;;;;9.95;100.00;101958.16;1034798;28;20292;-54
2023/09/15 00:11:15;;;;;;;4.50;3.40;;;;;;;9.95;100.00;101946.69;1036409;28;20300;-53
2023/09/15 00:11:49;;;;;;;6.68;3.45;;;;;;;9.92;100.00;101953.19;1037705;28;20346;-54
2023/09/15 00:12:21;;;;;;;4.00;3.33;;;;;;;10.08;100.00;101947.66;1031878;28;20384;-54
2023/09/15 00:12:52;;;;;;;7.47;5.70;;;;;;;9.98;100.00;101952.44;1031575;28;20412;-54
2023/09/15 00:13:24;;;;;;;5.97;3.47;;;;;;;10.15;100.00;101953.09;1032135;28;20380;-52
2023/09/15 00:13:56;;;;;;;8.32;4.05;;;;;;;9.90;100.00;101950.72;1031402;28;20301;-51
2023/09/15 00:14:28;;;;;;;4.55;2.92;;;;;;;10.04;100.00;101948.22;1031143;28;20440;-52
2023/09/15 00:15:00;;;;;;;6.70;3.42;;;;;;;10.05;100.00;101948.03;1031409;28;20313;-52
2023/09/15 00:15:32;;;;;;;5.55;3.50;;;;;;;10.09;100.00;101949.31;1031373;28;20720;-51
2023/09/15 00:16:04;;;;;;;6.13;4.30;;;;;;;10.13;100.00;101949.75;1031713;28;20319;-50
2023/09/15 00:16:41;;;;;;;12.15;4.53;;;;;;;10.37;100.00;101953.97;1030483;28;20317;-52
2023/09/15 00:17:13;;;;;;;5.57;3.90;;;;;;;10.39;100.00;101950.09;1032012;28;20301;-53
2023/09/15 00:17:45;;;;;;;4.80;3.70;;;;;;;10.23;100.00;101949.53;1031591;28;20388;-52
2023/09/15 00:18:18;;;;;;;4.47;3.22;;;;;;;10.48;100.00;101950.84;1032124;28;20297;-51
2023/09/15 00:18:50;;;;;;;6.53;3.67;;;;;;;10.31;100.00;101946.75;1032034;28;20788;-54
2023/09/15 00:19:22;;;;;;;6.28;3.97;;;;;;;10.36;100.00;101949.66;1031470;28;20309;-55
2023/09/15 00:19:54;;;;;;;9.00;3.88;;;;;;;10.61;100.00;101937.66;1032191;28;20657;-53
2023/09/15 00:20:26;;;;;;;8.32;3.85;;;;;;;10.35;100.00;101942.69;1032190;28;20298;-54
2023/09/15 00:20:58;;;;;;;4.63;4.18;;;;;;;10.31;100.00;101947.56;1031748;28;20382;-54
2023/09/15 00:21:30;;;;;;;4.95;3.58;;;;;;;10.43;100.00;101946.09;1031457;28;20324;-53
2023/09/15 00:22:01;;;;;;;9.32;4.30;;;;;;;10.52;100.00;101939.63;1032160;28;20297;-55
2023/09/15 00:22:33;;;;;;;5.13;3.95;;;;;;;10.41;100.00;101941.97;1031596;28;20785;-54
2023/09/15 00:23:05;;;;;;;6.25;3.47;;;;;;;10.60;100.00;101941.31;1031906;28;21456;-54
2023/09/15 00:23:37;;;;;;;8.18;3.78;;;;;;;10.41;100.00;101941.97;1031919;28;20871;-54
2023/09/15 00:24:09;;;;;;;8.35;3.45;;;;;;;10.35;100.00;101942.69;1031355;28;20324;-53
2023/09/15 00:24:40;;;;;;;4.53;3.75;;;;;;;10.57;100.00;101940.88;1031813;28;20316;-54
2023/09/15 00:25:13;;;;;;;5.40;3.72;;;;;;;10.73;100.00;101937.97;1031525;28;20293;-54
2023/09/15 00:25:45;;;;;;;7.40;3.92;;;;;;;10.71;100.00;101932.84;1031261;28;20305;-55
2023/09/15 00:26:35;;;;;;;4.93;4.05;;;;;;;10.82;100.00;101940.31;1031662;28;20360;-53
2023/09/15 00:27:07;;;;;;;5.07;3.72;;;;;;;10.92;100.00;101942.66;1029680;28;20255;-54
2023/09/15 00:27:39;;;;;;;7.32;4.40;;;;;;;10.98;100.00;101941.09;1031008;28;20305;-54
2023/09/15 00:28:13;;;;;;;5.05;2.75;;;;;;;10.80;100.00;101937.03;1031505;28;20325;-54
2023/09/15 00:28:44;;;;;;;4.57;3.08;;;;;;;10.59;100.00;101936.19;1031665;28;20388;-54
2023/09/15 00:29:16;;;;;;;5.45;3.42;;;;;;;10.34;100.00;101931.22;1031315;28;20421;-53
2023/09/15 00:29:48;;;;;;;6.70;3.85;;;;;;;10.30;100.00;101934.44;1027451;28;20908;-54
2023/09/15 00:30:21;;;;;;;3.33;3.10;;;;;;;10.43;100.00;101934.59;1023383;29;20302;-54
2023/09/15 00:30:53;;;;;;;4.18;3.13;;;;;;;10.64;100.00;101926.59;1023559;28;20306;-53
2023/09/15 00:31:26;;;;;;;4.10;3.40;;;;;;;10.41;100.00;101947.28;1023947;28;20380;-53
2023/09/15 00:31:57;;;;;;;4.93;3.00;;;;;;;10.24;100.00;101936.00;1028419;28;20314;-53
2023/09/15 00:32:29;;;;;;;5.95;3.22;;;;;;;10.51;100.00;101945.13;1027404;28;20293;-51
2023/09/15 00:33:01;;;;;;;7.25;4.20;;;;;;;10.65;100.00;101933.59;1027515;28;20298;-51
2023/09/15 00:33:32;;;;;;;5.53;3.75;;;;;;;10.73;100.00;101930.00;1027846;28;20861;-50
2023/09/15 00:34:04;;;;;;;5.38;3.38;;;;;;;10.78;100.00;101931.06;1031871;28;20297;-54
2023/09/15 00:34:36;;;;;;;4.03;2.70;;;;;;;10.68;100.00;101933.22;1035128;28;21505;-53
2023/09/15 00:35:08;;;;;;;5.28;3.70;;;;;;;10.61;100.00;101937.66;1033380;28;20305;-54
2023/09/15 00:35:40;;;;;;;3.88;3.38;;;;;;;10.55;100.00;101938.41;1039416;28;20300;-53
2023/09/15 00:36:11;;;;;;;5.50;3.22;;;;;;;10.59;100.00;101934.34;1039606;28;20308;-53
2023/09/15 00:36:45;;;;;;;5.20;3.28;;;;;;;10.71;100.00;101943.50;1037610;28;20668;-54
2023/09/15 00:37:17;;;;;;;5.47;3.67;;;;;;;10.66;100.00;101929.06;1036148;28;20301;-54
2023/09/15 00:37:50;;;;;;;11.98;3.65;;;;;;;10.53;100.00;101935.09;1031867;28;20793;-53
2023/09/15 00:38:21;;;;;;;6.38;3.47;;;;;;;10.56;100.00;101931.25;1027395;28;20298;-54
2023/09/15 00:38:54;;;;;;;6.60;3.95;;;;;;;10.58;100.00;101935.38;1027259;28;20309;-51
2023/09/15 00:39:26;;;;;;;6.97;3.65;;;;;;;10.72;100.00;101933.66;1027530;28;20349;-51
2023/09/15 00:39:57;;;;;;;3.25;2.95;;;;;;;10.61;100.00;101936.81;1027106;28;20302;-52
2023/09/15 00:40:29;;;;;;;5.30;3.08;;;;;;;10.51;100.00;101931.81;1023986;28;20299;-51
2023/09/15 00:41:01;;;;;;;8.57;3.72;;;;;;;10.46;100.00;101932.38;1026899;28;20356;-50
2023/09/15 00:41:32;;;;;;;6.03;3.55;;;;;;;10.29;100.00;101936.28;1027045;28;20314;-53
2023/09/15 00:42:04;;;;;;;5.43;3.03;;;;;;;10.53;100.00;101929.78;1032317;28;20721;-52
2023/09/15 00:42:38;;;;;;;4.28;2.85;;;;;;;10.65;100.00;101932.75;1032583;28;20385;-53
2023/09/15 00:43:09;;;;;;;5.45;3.45;;;;;;;10.41;100.00;101941.97;1027114;28;20310;-53
2023/09/15 00:43:41;;;;;;;4.22;2.80;;;;;;;10.41;100.00;101942.78;1027335;28;20313;-54
2023/09/15 00:44:13;;;;;;;3.80;3.42;;;;;;;10.34;100.00;101936.53;1027634;28;20305;-52
2023/09/15 00:44:45;;;;;;;4.93;3.45;;;;;;;10.33;100.00;101939.38;1031422;28;20309;-53
2023/09/15 00:45:22;;;;;;;5.65;3.30;;;;;;;10.10;100.00;101936.81;1031724;28;20304;-53
2023/09/15 00:45:55;;;;;;;5.90;3.20;;;;;;;10.11;100.00;101939.28;1029660;28;20298;-53
2023/09/15 00:46:27;;;;;;;5.22;3.33;;;;;;;10.10;100.00;101939.47;1031171;28;20693;-54
2023/09/15 00:46:59;;;;;;;3.58;3.05;;;;;;;10.00;100.00;101934.47;1026783;28;20301;-50
2023/09/15 00:47:36;;;;;;;3.92;3.17;;;;;;;10.28;100.00;101934.63;1029142;28;20360;-53
2023/09/15 00:48:07;;;;;;;5.25;3.30;;;;;;;10.12;100.00;101935.63;1027393;28;20313;-53
2023/09/15 00:48:39;;;;;;;5.15;3.13;;;;;;;10.16;100.00;101934.25;1028232;28;20364;-52
2023/09/15 00:49:11;;;;;;;5.30;3.38;;;;;;;10.24;100.00;101929.88;1023476;29;20676;-51
2023/09/15 00:49:44;;;;;;;6.70;3.72;;;;;;;10.26;100.00;101933.16;1022912;28;20310;-53
2023/09/15 00:50:17;;;;;;;5.30;3.38;;;;;;;10.14;100.00;101936.28;1022203;29;20645;-49
2023/09/15 00:50:49;;;;;;;5.93;4.15;;;;;;;10.30;100.00;101935.25;1020988;28;20313;-51
2023/09/15 00:51:21;;;;;;;8.57;3.72;;;;;;;10.47;100.00;101928.69;1027618;28;20685;-52
2023/09/15 00:51:53;;;;;;;6.35;3.55;;;;;;;10.31;100.00;101933.44;1023498;28;20310;-51
2023/09/15 00:52:24;;;;;;;6.85;3.42;;;;;;;10.13;100.00;101931.94;1027945;28;20306;-51
2023/09/15 00:53:00;;;;;;;6.30;3.22;;;;;;;10.08;100.00;101930.84;1023596;29;20302;-52
2023/09/15 00:53:33;;;;;;;6.78;3.65;;;;;;;10.07;100.00;101935.34;1020282;29;20307;-51
2023/09/15 00:54:08;;;;;;;4.25;3.85;;;;;;;10.39;100.00;101935.97;1022915;29;20489;-51
2023/09/15 00:54:40;;;;;;;5.28;3.22;;;;;;;10.40;100.00;101929.63;1026699;28;20363;-54
2023/09/15 00:55:13;;;;;;;4.97;3.38;;;;;;;10.47;100.00;101925.22;1023142;29;20306;-53
2023/09/15 00:55:46;;;;;;;7.80;3.47;;;;;;;10.25;100.00;101924.34;1024594;28;20302;-53
2023/09/15 00:56:18;;;;;;;4.55;3.38;;;;;;;10.47;100.00;101936.69;1025541;28;20377;-52
2023/09/15 00:56:49;;;;;;;7.05;3.40;;;;;;;10.60;100.00;101930.66;1030356;28;20338;-53
2023/09/15 00:57:21;;;;;;;4.90;3.45;;;;;;;10.60;100.00;101928.00;1039107;28;20307;-53
2023/09/15 00:57:55;;;;;;;4.13;3.50;;;;;;;10.51;100.00;101926.50;1038721;28;20325;-54
2023/09/15 00:58:26;;;;;;;4.47;3.00;;;;;;;10.40;100.00;101932.28;1035865;28;20391;-52
2023/09/15 00:59:01;;;;;;;3.25;2.88;;;;;;;10.33;100.00;101932.22;1031463;28;20308;-53
2023/09/15 00:59:33;;;;;;;4.18;2.83;;;;;;;10.51;100.00;101921.97;1031527;28;20305;-53
2023/09/15 01:00:12;;;;;;;4.15;3.08;;;;;;;10.44;100.00;101933.59;1029295;28;20820;-53
2023/09/15 01:00:44;;;;;;;6.65;3.45;;;;;;;10.15;100.00;101932.63;1027448;28;20364;-53
2023/09/15 01:01:16;;;;;;;3.25;2.47;;;;;;;10.22;100.00;101932.72;1033028;28;20681;-53
2023/09/15 01:01:49;;;;;;;3.42;3.00;;;;;;;10.16;100.00;101928.13;1034933;28;20301;-52
2023/09/15 01:02:21;;;;;;;8.90;3.10;;;;;;;10.07;100.00;101931.88;1035183;28;20298;-51
2023/09/15 01:02:53;;;;;;;8.18;3.10;;;;;;;10.20;100.00;101932.06;1034477;28;20304;-52
2023/09/15 01:03:28;;;;;;;3.47;3.17;;;;;;;10.23;100.00;101933.53;1031555;28;20305;-51
2023/09/15 01:03:59;;;;;;;5.50;3.13;;;;;;;10.11;100.00;101925.16;1026853;28;20625;-51
2023/09/15 01:04:31;;;;;;;6.43;3.90;;;;;;;10.10;100.00;101927.00;1028172;28;20329;-53
2023/09/15 01:05:04;;;;;;;10.68;3.58;;;;;;;10.15;100.00;101921.13;1031418;28;20396;-53
2023/09/15 01:05:38;;;;;;;5.80;3.65;;;;;;;10.35;100.00;101927.53;1031754;28;20293;-53
2023/09/15 01:06:13;;;;;;;7.28;3.88;;;;;;;10.18;100.00;101926.91;1031366;28;20305;-52
2023/09/15 01:06:46;;;;;;;8.70;3.60;;;;;;;10.16;100.00;101926.28;1027215;28;20305;-53
2023/09/15 01:07:18;;;;;;;4.22;2.88;;;;;;;10.18;100.00;101921.59;1018259;29;20318;-53
2023/09/15 01:07:52;;;;;;;3.05;2.70;;;;;;;10.16;100.00;101928.13;1020797;29;20893;-54
2023/09/15 01:08:25;;;;;;;3.78;3.38;;;;;;;10.07;100.00;101924.72;1020657;29;20299;-53
2023/09/15 01:08:56;;;;;;;6.30;3.92;;;;;;;10.27;100.00;101924.16;1020729;28;20687;-53
2023/09/15 01:09:29;;;;;;;6.72;3.45;;;;;;;10.33;100.00;101920.75;1023493;29;20317;-52
2023/09/15 01:10:01;;;;;;;4.70;3.55;;;;;;;10.14;100.00;101927.47;1024119;28;20743;-51
2023/09/15 01:10:33;;;;;;;5.13;2.90;;;;;;;10.09;100.00;101922.69;1019910;29;20831;-52
2023/09/15 01:11:05;;;;;;;5.15;3.28;;;;;;;10.28;100.00;101933.81;1023883;28;20794;-52
2023/09/15 01:11:37;;;;;;;5.05;3.30;;;;;;;10.07;100.00;101922.06;1023375;29;20302;-52
2023/09/15 01:12:08;;;;;;;3.45;2.75;;;;;;;9.98;100.00;101925.00;1020000;28;20319;-50
2023/09/15 01:12:44;;;;;;;6.07;3.17;;;;;;;10.01;100.00;101929.97;1026936;28;21186;-51
2023/09/15 01:13:15;;;;;;;4.70;3.28;;;;;;;10.03;100.00;101920.78;1026441;28;20844;-52
2023/09/15 01:13:49;;;;;;;3.83;3.25;;;;;;;10.13;100.00;101923.97;1031059;28;20305;-50
2023/09/15 01:14:20;;;;;;;4.03;3.13;;;;;;;10.30;100.00;101919.28;1031611;28;20777;-50
2023/09/15 01:14:53;;;;;;;6.68;2.88;;;;;;;10.34;100.00;101912.56;1031505;28;20360;-51
2023/09/15 01:15:39;;;;;;;7.13;3.42;;;;;;;10.33;100.00;101916.25;1030981;28;20384;-51
2023/09/15 01:16:18;;;;;;;3.42;3.13;;;;;;;10.08;100.00;101921.03;1031655;28;20293;-50
2023/09/15 01:16:53;;;;;;;6.22;3.10;;;;;;;10.08;100.00;101914.88;1031493;28;20661;-50
2023/09/15 01:17:35;;;;;;;5.10;2.88;;;;;;;10.00;100.00;101913.16;1030790;28;20323;-52
2023/09/15 01:18:31;;;;;;;6.57;3.15;;;;;;;9.87;100.00;101913.00;1032371;28;20364;-54
2023/09/15 01:19:29;;;;;;;8.15;2.55;;;;;;;9.96;100.00;101914.56;1027573;28;20778;-53
2023/09/15 01:20:09;;;;;;;5.07;2.63;;;;;;;9.93;100.00;101912.25;1026713;28;20665;-51
2023/09/15 01:21:06;;;;;;;7.93;3.65;;;;;;;9.96;100.00;101909.22;1024366;28;20346;-51
2023/09/15 01:22:08;;;;;;;4.43;3.20;;;;;;;10.15;100.00;101911.31;1027681;28;20390;-52
2023/09/15 01:23:21;;;;;;;5.95;3.53;;;;;;;10.18;100.00;101905.63;1029982;28;20309;-52
2023/09/15 01:23:53;;;;;;;;;;;;;;;10.30;100.00;101902.47;1031976;28;20439;-52
2023/09/15 01:24:43;;;;;;;3.47;3.05;;;;;;;10.32;100.00;101911.09;1031270;28;19929;-52
2023/09/15 01:25:26;;;;;;;3.80;2.80;;;;;;;10.20;100.00;101908.94;1026926;28;20326;-51
2023/09/15 01:26:11;;;;;;;10.55;3.63;;;;;;;10.29;100.00;101903.50;1023618;29;20062;-53
2023/09/15 01:27:05;;;;;;;4.93;2.67;;;;;;;10.26;100.00;101912.69;1023210;29;20642;-51
2023/09/15 01:28:04;;;;;;;6.57;3.53;;;;;;;9.87;100.00;101907.69;1024772;28;20303;-52
2023/09/15 01:29:02;;;;;;;5.47;2.92;;;;;;;9.91;100.00;101903.66;1027561;28;20365;-54
2023/09/15 01:29:40;;;;;;;2.85;2.60;;;;;;;10.03;100.00;101902.16;1021125;29;20299;-53
2023/09/15 01:30:11;;;;;;;5.28;3.67;;;;;;;9.94;100.00;101900.59;1020516;28;20875;-54
2023/09/15 01:30:44;;;;;;;5.40;3.50;;;;;;;10.16;100.00;101904.97;1023130;29;20870;-53
2023/09/15 01:31:17;;;;;;;6.93;3.70;;;;;;;9.92;100.00;101905.28;1020373;29;20308;-52
2023/09/15 01:31:49;;;;;;;3.15;2.78;;;;;;;10.11;100.00;101898.53;1024301;28;20678;-53
2023/09/15 01:32:22;;;;;;;3.42;2.78;;;;;;;10.04;100.00;101903.78;1023961;28;20314;-51
2023/09/15 01:32:56;;;;;;;6.03;3.10;;;;;;;9.79;100.00;101902.44;1024130;28;20689;-53
2023/09/15 01:33:29;;;;;;;4.30;3.08;;;;;;;9.81;100.00;101903.09;1030468;28;20321;-53
2023/09/15 01:34:01;;;;;;;4.82;2.75;;;;;;;9.74;100.00;101902.19;1031796;28;20305;-53
2023/09/15 01:34:35;;;;;;;6.95;2.97;;;;;;;10.03;100.00;101896.00;1035931;28;20296;-53
2023/09/15 01:35:07;;;;;;;3.80;3.35;;;;;;;10.23;100.00;101906.91;1037841;28;20311;-54
2023/09/15 01:35:39;;;;;;;5.15;3.00;;;;;;;10.01;100.00;101906.84;1031486;28;20305;-52
2023/09/15 01:36:11;;;;;;;7.88;2.85;;;;;;;9.93;100.00;101896.28;1030885;28;20317;-53
2023/09/15 01:36:46;;;;;;;3.13;2.72;;;;;;;9.86;100.00;101898.03;1031207;28;20316;-53
2023/09/15 01:37:18;;;;;;;4.05;2.53;;;;;;;10.19;100.00;101899.28;1031454;28;20296;-53
2023/09/15 01:37:51;;;;;;;3.78;2.83;;;;;;;10.25;100.00;101895.06;1030588;28;20363;-53
2023/09/15 01:38:22;;;;;;;4.85;3.40;;;;;;;10.00;100.00;101893.72;1031531;28;20316;-53
2023/09/15 01:38:54;;;;;;;3.25;2.97;;;;;;;10.01;100.00;101893.53;1031875;28;20375;-51
2023/09/15 01:39:30;;;;;;;3.67;2.30;;;;;;;9.92;100.00;101894.66;1031877;28;20311;-53
2023/09/15 01:40:05;;;;;;;7.13;2.85;;;;;;;9.89;100.00;101890.53;1031954;28;20845;-52
2023/09/15 01:40:40;;;;;;;6.13;3.35;;;;;;;10.07;100.00;101898.09;1031038;28;20403;-53
2023/09/15 01:41:11;;;;;;;4.78;3.10;;;;;;;9.80;100.00;101896.13;1030931;28;20781;-52
2023/09/15 01:41:43;;;;;;;6.25;2.80;;;;;;;9.85;100.00;101893.72;1031343;28;20347;-54
2023/09/15 01:42:15;;;;;;;6.85;3.20;;;;;;;9.75;100.00;101887.88;1031061;28;20390;-53
2023/09/15 01:42:48;;;;;;;6.18;3.38;;;;;;;9.87;100.00;101891.72;1031118;28;20746;-53
2023/09/15 01:43:20;;;;;;;3.28;2.65;;;;;;;9.77;100.00;101893.81;1031441;28;20301;-52
2023/09/15 01:43:53;;;;;;;3.50;3.17;;;;;;;9.73;100.00;101893.38;1031081;28;20793;-50
2023/09/15 01:44:25;;;;;;;5.25;3.38;;;;;;;9.48;100.00;101900.81;1030301;28;20317;-51
2023/09/15 01:44:57;;;;;;;5.10;3.60;;;;;;;9.48;100.00;101897.31;1031741;28;20766;-50
2023/09/15 01:45:28;;;;;;;7.03;4.00;;;;;;;9.68;100.00;101895.78;1031516;28;20807;-52
2023/09/15 01:46:00;;;;;;;5.63;3.60;;;;;;;9.44;100.00;101890.72;1031234;28;20821;-52
2023/09/15 01:46:32;;;;;;;8.68;3.70;;;;;;;9.45;100.00;101892.38;1031661;28;20297;-52
2023/09/15 01:47:06;;;;;;;8.55;4.30;;;;;;;9.58;100.00;101898.69;1030721;28;20399;-51
2023/09/15 01:47:38;;;;;;;4.10;3.42;;;;;;;9.44;100.00;101888.88;1032224;28;20305;-51
2023/09/15 01:48:12;;;;;;;7.22;3.90;;;;;;;9.49;100.00;101898.97;1027330;28;20305;-54
2023/09/15 01:48:44;;;;;;;4.97;3.25;;;;;;;9.58;100.00;101892.53;1024339;28;20290;-52
2023/09/15 01:49:20;;;;;;;5.07;3.15;;;;;;;9.46;100.00;101896.69;1022906;29;20314;-52
2023/09/15 01:49:52;;;;;;;4.97;3.88;;;;;;;9.37;100.00;101893.28;1024502;28;20294;-52
2023/09/15 01:50:25;;;;;;;4.90;3.10;;;;;;;9.43;100.00;101905.84;1028528;28;20298;-52
2023/09/15 01:50:58;;;;;;;4.03;3.20;;;;;;;9.38;100.00;101897.59;1030069;28;20293;-54
2023/09/15 01:51:31;;;;;;;5.30;3.47;;;;;;;9.41;100.00;101894.56;1031111;28;20312;-52
2023/09/15 01:52:03;;;;;;;3.22;2.83;;;;;;;9.48;100.00;101892.00;1026882;28;20385;-53
2023/09/15 01:52:35;;;;;;;5.93;3.50;;;;;;;9.42;100.00;101898.06;1023554;29;20682;-53
2023/09/15 01:53:06;;;;;;;5.88;3.00;;;;;;;9.44;100.00;101896.88;1020039;29;20897;-53
2023/09/15 01:53:42;;;;;;;7.80;3.83;;;;;;;9.72;100.00;101893.56;1020178;29;20304;-52
2023/09/15 01:54:15;;;;;;;5.80;3.42;;;;;;;9.85;100.00;101893.72;1024607;28;20937;-53
2023/09/15 01:54:48;;;;;;;5.07;3.53;;;;;;;9.94;100.00;101891.81;1026787;28;20302;-51
2023/09/15 01:55:21;;;;;;;11.02;3.55;;;;;;;9.94;100.00;101894.47;1022934;28;20825;-52
2023/09/15 01:55:53;;;;;;;4.13;3.33;;;;;;;9.77;100.00;101885.84;1020630;29;20299;-53
2023/09/15 01:56:28;;;;;;;5.05;3.28;;;;;;;9.93;100.00;101896.28;1024748;28;20672;-53
2023/09/15 01:57:00;;;;;;;3.38;3.08;;;;;;;9.81;100.00;101892.44;1027954;28;20329;-53
2023/09/15 01:57:31;;;;;;;4.22;2.80;;;;;;;9.79;100.00;101892.63;1028084;28;20310;-53
2023/09/15 01:58:03;;;;;;;2.90;2.63;;;;;;;9.76;100.00;101894.84;1027806;28;20294;-53
2023/09/15 01:58:35;;;;;;;4.72;3.40;;;;;;;9.63;100.00;101887.53;1023183;28;20314;-51
2023/09/15 01:59:06;;;;;;;3.10;2.80;;;;;;;9.60;100.00;101891.38;1023320;28;20313;-50
2023/09/15 01:59:38;;;;;;;3.50;3.10;;;;;;;9.64;100.00;101888.34;1022693;29;20314;-52
2023/09/15 02:00:10;;;;;;;5.00;3.60;;;;;;;9.74;100.00;101892.38;1019470;29;20299;-49
2023/09/15 02:00:48;;;;;;;5.97;3.83;;;;;;;9.72;100.00;101890.91;1020350;29;20394;-53
2023/09/15 02:01:19;;;;;;;3.33;2.88;;;;;;;9.56;100.00;101890.06;1019847;29;20410;-50
2023/09/15 02:01:51;;;;;;;6.57;4.03;;;;;;;9.51;100.00;101891.63;1024139;28;20678;-52
2023/09/15 02:02:23;;;;;;;8.95;3.10;;;;;;;9.50;100.00;101896.13;1027892;28;20282;-55
2023/09/15 02:02:55;;;;;;;6.57;3.47;;;;;;;9.71;100.00;101891.91;1030926;28;20337;-51
2023/09/15 02:03:26;;;;;;;7.05;3.50;;;;;;;9.90;100.00;101886.03;1030883;28;20309;-51
2023/09/15 02:04:00;;;;;;;4.43;2.70;;;;;;;10.01;100.00;101888.19;1031421;28;20303;-53
2023/09/15 02:04:32;;;;;;;7.50;3.28;;;;;;;9.97;100.00;101883.44;1031153;28;20376;-52
2023/09/15 02:05:04;;;;;;;4.13;3.05;;;;;;;9.84;100.00;101897.38;1031279;28;20323;-53
2023/09/15 02:05:35;;;;;;;4.25;3.28;;;;;;;9.71;100.00;101886.59;1031326;28;20337;-53
2023/09/15 02:06:07;;;;;;;6.30;3.22;;;;;;;9.64;100.00;101888.34;1026908;28;20682;-49
2023/09/15 02:06:39;;;;;;;5.70;3.00;;;;;;;9.84;100.00;101886.75;1028606;28;20761;-52
2023/09/15 02:07:11;;;;;;;3.13;2.85;;;;;;;9.96;100.00;101884.44;1027216;28;20388;-53
2023/09/15 02:07:42;;;;;;;4.03;3.50;;;;;;;9.85;100.00;101888.41;1022714;28;20441;-53
2023/09/15 02:08:14;;;;;;;3.63;2.55;;;;;;;9.81;100.00;101889.78;1027213;28;20294;-52
2023/09/15 02:08:46;;;;;;;5.50;2.78;;;;;;;9.75;100.00;101878.03;1027592;28;20302;-50
2023/09/15 02:09:18;;;;;;;5.80;2.63;;;;;;;9.74;100.00;101886.22;1030719;28;20304;-52
2023/09/15 02:09:51;;;;;;;3.92;2.75;;;;;;;9.64;100.00;101891.00;1026959;28;20949;-50
2023/09/15 02:10:23;;;;;;;3.95;3.55;;;;;;;9.47;100.00;101890.34;1031010;28;20312;-52
2023/09/15 02:10:55;;;;;;;3.38;3.08;;;;;;;9.54;100.00;101892.09;1030897;28;21000;-51
2023/09/15 02:11:26;;;;;;;5.35;3.15;;;;;;;9.51;100.00;101886.31;1031203;28;20825;-52
2023/09/15 02:11:58;;;;;;;2.85;2.60;;;;;;;9.48;100.00;101894.66;1028943;28;20360;-50
2023/09/15 02:12:30;;;;;;;7.35;3.40;;;;;;;9.36;100.00;101888.97;1030362;28;20301;-52
2023/09/15 02:13:02;;;;;;;4.20;3.20;;;;;;;9.31;100.00;101891.34;1031422;28;20294;-49
2023/09/15 02:13:36;;;;;;;2.90;2.60;;;;;;;9.39;100.00;101888.63;1028834;28;20297;-52
2023/09/15 02:14:07;;;;;;;8.30;3.10;;;;;;;9.56;100.00;101895.38;1027142;28;20670;-52
2023/09/15 02:14:39;;;;;;;4.68;2.78;;;;;;;9.60;100.00;101890.56;1027281;28;20306;-52
2023/09/15 02:15:12;;;;;;;3.67;2.80;;;;;;;9.62;100.00;101887.72;1026797;28;20310;-51
2023/09/15 02:15:44;;;;;;;5.95;2.38;;;;;;;9.46;100.00;101889.53;1027923;28;20312;-52
2023/09/15 02:16:15;;;;;;;5.50;2.75;;;;;;;9.28;100.00;101897.03;1031926;28;20298;-51
2023/09/15 02:16:47;;;;;;;3.90;3.20;;;;;;;9.28;100.00;101897.03;1031560;28;20804;-52
2023/09/15 02:17:19;;;;;;;3.63;2.60;;;;;;;9.23;100.00;101891.44;1030436;28;20313;-52
2023/09/15 02:17:52;;;;;;;5.05;3.42;;;;;;;9.21;100.00;101888.13;1027236;28;20294;-51
2023/09/15 02:18:24;;;;;;;4.68;2.90;;;;;;;9.10;100.00;101894.72;1027248;28;20677;-52
2023/09/15 02:18:56;;;;;;;3.75;3.40;;;;;;;8.90;100.00;101891.72;1027402;28;20300;-52
2023/09/15 02:19:30;;;;;;;4.43;3.15;;;;;;;8.94;100.00;101895.69;1028921;28;20366;-53
2023/09/15 02:20:11;;;;;;;4.60;3.03;;;;;;;8.89;100.00;101887.44;1030654;28;20297;-49
2023/09/15 02:20:43;;;;;;;6.57;3.22;;;;;;;8.96;100.00;101893.66;1030696;28;20416;-53
2023/09/15 02:21:14;;;;;;;5.78;3.80;;;;;;;8.88;100.00;101885.78;1031727;28;20320;-50
2023/09/15 02:21:49;;;;;;;3.60;3.17;;;;;;;8.73;100.00;101887.56;1030756;28;20312;-52
2023/09/15 02:22:21;;;;;;;5.03;3.78;;;;;;;8.84;100.00;101895.13;1027481;28;20404;-52
2023/09/15 02:22:53;;;;;;;6.15;3.20;;;;;;;8.81;100.00;101884.84;1027441;28;20790;-52
2023/09/15 02:23:25;;;;;;;3.75;3.20;;;;;;;8.70;100.00;101890.56;1026984;28;20384;-52
2023/09/15 02:24:01;;;;;;;6.97;3.67;;;;;;;8.79;100.00;101884.19;1027625;28;20585;-50
2023/09/15 02:24:34;;;;;;;8.55;4.45;;;;;;;8.91;100.00;101887.25;1026803;28;20753;-50
2023/09/15 02:25:06;;;;;;;3.30;3.00;;;;;;;8.93;100.00;101886.06;1027075;28;20302;-50
2023/09/15 02:25:37;;;;;;;9.77;3.15;;;;;;;8.88;100.00;101883.13;1027822;28;20301;-52
2023/09/15 02:26:09;;;;;;;4.57;2.80;;;;;;;8.84;100.00;101895.13;1031207;28;20305;-50
2023/09/15 02:26:41;;;;;;;3.25;2.95;;;;;;;8.85;100.00;101887.97;1030797;28;20301;-50
2023/09/15 02:27:12;;;;;;;4.28;3.45;;;;;;;8.90;100.00;101891.72;1030763;28;20305;-50
2023/09/15 02:27:44;;;;;;;8.40;4.55;;;;;;;8.72;100.00;101891.22;1030899;28;20293;-51
2023/09/15 02:28:16;;;;;;;5.22;3.17;;;;;;;8.78;100.00;101882.56;1031372;28;20297;-52
2023/09/15 02:28:48;;;;;;;3.97;3.08;;;;;;;8.81;100.00;101892.00;1031005;28;20309;-51
2023/09/15 02:29:20;;;;;;;4.57;3.28;;;;;;;8.83;100.00;101885.50;1031234;28;20545;-54
2023/09/15 02:29:51;;;;;;;5.18;3.42;;;;;;;8.85;100.00;101883.47;1026989;28;20286;-54
2023/09/15 02:30:23;;;;;;;2.88;2.63;;;;;;;8.76;100.00;101884.53;1026699;28;20770;-54
2023/09/15 02:30:55;;;;;;;7.55;3.63;;;;;;;8.77;100.00;101893.34;1027738;28;20298;-54
2023/09/15 02:31:30;;;;;;;5.47;3.17;;;;;;;8.71;100.00;101894.88;1030902;28;20305;-53
2023/09/15 02:32:02;;;;;;;5.85;3.63;;;;;;;8.61;100.00;101895.13;1030633;28;20321;-52
2023/09/15 02:32:34;;;;;;;3.70;3.35;;;;;;;8.68;100.00;101889.91;1030363;28;20321;-53
2023/09/15 02:33:06;;;;;;;5.70;3.72;;;;;;;8.73;100.00;101892.84;1031242;28;20792;-54
2023/09/15 02:33:37;;;;;;;3.53;3.05;;;;;;;8.82;100.00;101889.16;1030794;28;20824;-54
2023/09/15 02:34:09;;;;;;;5.25;2.90;;;;;;;8.81;100.00;101889.34;1030795;28;20343;-54
2023/09/15 02:34:42;;;;;;;4.43;2.90;;;;;;;8.73;100.00;101895.50;1028758;28;20385;-52
2023/09/15 02:35:14;;;;;;;4.00;2.97;;;;;;;8.71;100.00;101889.56;1030960;28;20331;-53
2023/09/15 02:35:46;;;;;;;6.20;3.78;;;;;;;8.63;100.00;101893.13;1028302;28;20350;-53